sensor_id;sensor_type;location;lat;lon;timestamp;P1;durP1;ratioP1;P2;durP2;ratioP2
58842;SDS011;44614;54.356;10.100;2023-03-25T00:01:07;5.68;;;2.10;;
58842;SDS011;44614;54.356;10.100;2023-03-25T00:03:39;5.50;;;1.48;;
58842;SDS011;44614;54.356;10.100;2023-03-25T00:06:07;8.10;;;1.77;;
58842;SDS011;44614;54.356;10.100;2023-03-25T00:08:33;3.67;;;1.23;;
58842;SDS011;44614;54.356;10.100;2023-03-25T00:10:59;8.32;;;1.70;;
58842;SDS011;44614;54.356;10.100;2023-03-25T00:13:28;3.85;;;1.45;;
58842;SDS011;44614;54.356;10.100;2023-03-25T00:15:55;3.80;;;1.77;;
58842;SDS011;44614;54.356;10.100;2023-03-25T00:18:22;7.68;;;1.83;;
58842;SDS011;44614;54.356;10.100;2023-03-25T00:20:49;4.55;;;1.40;;
58842;SDS011;44614;54.356;10.100;2023-03-25T00:23:16;5.68;;;1.38;;
58842;SDS011;44614;54.356;10.100;2023-03-25T00:28:10;6.05;;;1.45;;
58842;SDS011;44614;54.356;10.100;2023-03-25T00:30:36;3.50;;;1.52;;
58842;SDS011;44614;54.356;10.100;2023-03-25T00:33:03;3.33;;;1.35;;
58842;SDS011;44614;54.356;10.100;2023-03-25T00:35:28;5.60;;;1.73;;
58842;SDS011;44614;54.356;10.100;2023-03-25T00:37:55;7.30;;;2.15;;
58842;SDS011;44614;54.356;10.100;2023-03-25T00:40:27;3.10;;;1.77;;
58842;SDS011;44614;54.356;10.100;2023-03-25T00:42:54;5.07;;;2.22;;
58842;SDS011;44614;54.356;10.100;2023-03-25T00:45:20;3.42;;;1.48;;
58842;SDS011;44614;54.356;10.100;2023-03-25T00:47:45;3.10;;;1.40;;
58842;SDS011;44614;54.356;10.100;2023-03-25T00:50:11;7.13;;;1.60;;
58842;SDS011;44614;54.356;10.100;2023-03-25T00:52:36;2.10;;;1.65;;
58842;SDS011;44614;54.356;10.100;2023-03-25T00:55:02;9.90;;;1.60;;
58842;SDS011;44614;54.356;10.100;2023-03-25T00:57:28;2.35;;;1.70;;
58842;SDS011;44614;54.356;10.100;2023-03-25T00:59:54;7.45;;;2.05;;
58842;SDS011;44614;54.356;10.100;2023-03-25T01:02:19;4.20;;;1.40;;
58842;SDS011;44614;54.356;10.100;2023-03-25T01:04:45;2.95;;;2.00;;
58842;SDS011;44614;54.356;10.100;2023-03-25T01:07:14;5.45;;;1.73;;
58842;SDS011;44614;54.356;10.100;2023-03-25T01:09:40;5.82;;;1.63;;
58842;SDS011;44614;54.356;10.100;2023-03-25T01:12:05;3.10;;;1.52;;
58842;SDS011;44614;54.356;10.100;2023-03-25T01:14:31;5.43;;;1.77;;
58842;SDS011;44614;54.356;10.100;2023-03-25T01:16:57;4.77;;;1.63;;
58842;SDS011;44614;54.356;10.100;2023-03-25T01:19:23;8.38;;;2.22;;
58842;SDS011;44614;54.356;10.100;2023-03-25T01:21:49;3.25;;;2.03;;
58842;SDS011;44614;54.356;10.100;2023-03-25T01:24:14;2.38;;;1.45;;
58842;SDS011;44614;54.356;10.100;2023-03-25T01:26:40;2.95;;;1.73;;
58842;SDS011;44614;54.356;10.100;2023-03-25T01:29:08;6.88;;;1.73;;
58842;SDS011;44614;54.356;10.100;2023-03-25T01:31:34;3.20;;;1.55;;
58842;SDS011;44614;54.356;10.100;2023-03-25T01:33:59;6.05;;;1.95;;
58842;SDS011;44614;54.356;10.100;2023-03-25T01:36:25;6.72;;;1.77;;
58842;SDS011;44614;54.356;10.100;2023-03-25T01:38:53;5.90;;;1.98;;
58842;SDS011;44614;54.356;10.100;2023-03-25T01:41:19;9.67;;;1.90;;
58842;SDS011;44614;54.356;10.100;2023-03-25T01:46:28;6.85;;;2.20;;
58842;SDS011;44614;54.356;10.100;2023-03-25T01:48:54;4.97;;;2.55;;
58842;SDS011;44614;54.356;10.100;2023-03-25T01:51:21;5.53;;;1.88;;
58842;SDS011;44614;54.356;10.100;2023-03-25T01:53:50;4.80;;;1.98;;
58842;SDS011;44614;54.356;10.100;2023-03-25T01:56:24;5.28;;;2.20;;
58842;SDS011;44614;54.356;10.100;2023-03-25T01:58:54;3.80;;;1.90;;
58842;SDS011;44614;54.356;10.100;2023-03-25T02:01:21;6.70;;;2.50;;
58842;SDS011;44614;54.356;10.100;2023-03-25T02:03:48;7.20;;;1.88;;
58842;SDS011;44614;54.356;10.100;2023-03-25T02:06:18;5.80;;;1.98;;
58842;SDS011;44614;54.356;10.100;2023-03-25T02:08:50;5.93;;;1.90;;
58842;SDS011;44614;54.356;10.100;2023-03-25T02:11:18;4.18;;;2.40;;
58842;SDS011;44614;54.356;10.100;2023-03-25T02:13:43;5.00;;;2.25;;
58842;SDS011;44614;54.356;10.100;2023-03-25T02:16:17;6.15;;;2.40;;
58842;SDS011;44614;54.356;10.100;2023-03-25T02:24:58;4.10;;;2.45;;
58842;SDS011;44614;54.356;10.100;2023-03-25T02:27:36;6.22;;;2.53;;
58842;SDS011;44614;54.356;10.100;2023-03-25T02:38:33;8.68;;;2.78;;
58842;SDS011;44614;54.356;10.100;2023-03-25T02:41:07;6.63;;;2.70;;
58842;SDS011;44614;54.356;10.100;2023-03-25T02:43:39;8.75;;;2.67;;
58842;SDS011;44614;54.356;10.100;2023-03-25T02:46:11;8.38;;;2.65;;
58842;SDS011;44614;54.356;10.100;2023-03-25T02:48:41;7.18;;;2.92;;
58842;SDS011;44614;54.356;10.100;2023-03-25T02:51:21;5.47;;;2.90;;
58842;SDS011;44614;54.356;10.100;2023-03-25T02:53:52;4.93;;;2.47;;
58842;SDS011;44614;54.356;10.100;2023-03-25T02:56:20;7.80;;;2.70;;
58842;SDS011;44614;54.356;10.100;2023-03-25T02:58:49;9.60;;;2.50;;
58842;SDS011;44614;54.356;10.100;2023-03-25T03:01:19;7.63;;;3.33;;
58842;SDS011;44614;54.356;10.100;2023-03-25T03:03:46;7.07;;;3.05;;
58842;SDS011;44614;54.356;10.100;2023-03-25T03:06:15;9.25;;;3.38;;
58842;SDS011;44614;54.356;10.100;2023-03-25T03:08:46;11.07;;;3.83;;
58842;SDS011;44614;54.356;10.100;2023-03-25T03:11:57;7.60;;;3.28;;
58842;SDS011;44614;54.356;10.100;2023-03-25T03:19:50;8.30;;;2.65;;
58842;SDS011;44614;54.356;10.100;2023-03-25T03:25:05;9.40;;;3.10;;
58842;SDS011;44614;54.356;10.100;2023-03-25T03:27:44;11.05;;;2.95;;
58842;SDS011;44614;54.356;10.100;2023-03-25T03:33:37;6.97;;;2.80;;
58842;SDS011;44614;54.356;10.100;2023-03-25T03:35:58;7.88;;;3.17;;
58842;SDS011;44614;54.356;10.100;2023-03-25T03:38:33;6.07;;;2.58;;
58842;SDS011;44614;54.356;10.100;2023-03-25T03:41:06;5.57;;;2.78;;
58842;SDS011;44614;54.356;10.100;2023-03-25T03:43:47;7.22;;;3.10;;
58842;SDS011;44614;54.356;10.100;2023-03-25T03:46:15;10.43;;;3.10;;
58842;SDS011;44614;54.356;10.100;2023-03-25T03:48:51;7.53;;;2.80;;
58842;SDS011;44614;54.356;10.100;2023-03-25T03:51:22;8.43;;;2.97;;
58842;SDS011;44614;54.356;10.100;2023-03-25T04:02:21;9.55;;;3.25;;
58842;SDS011;44614;54.356;10.100;2023-03-25T04:04:52;6.80;;;2.55;;
58842;SDS011;44614;54.356;10.100;2023-03-25T04:07:22;6.50;;;1.92;;
58842;SDS011;44614;54.356;10.100;2023-03-25T04:10:20;6.72;;;2.22;;
58842;SDS011;44614;54.356;10.100;2023-03-25T04:12:53;4.00;;;3.00;;
58842;SDS011;44614;54.356;10.100;2023-03-25T04:15:21;5.80;;;1.90;;
58842;SDS011;44614;54.356;10.100;2023-03-25T04:17:46;2.90;;;1.48;;
58842;SDS011;44614;54.356;10.100;2023-03-25T04:20:15;6.03;;;1.95;;
58842;SDS011;44614;54.356;10.100;2023-03-25T04:22:47;3.63;;;1.80;;
58842;SDS011;44614;54.356;10.100;2023-03-25T04:25:13;5.80;;;1.67;;
58842;SDS011;44614;54.356;10.100;2023-03-25T04:27:39;7.57;;;2.80;;
58842;SDS011;44614;54.356;10.100;2023-03-25T04:30:05;5.95;;;2.65;;
58842;SDS011;44614;54.356;10.100;2023-03-25T04:32:32;6.63;;;2.42;;
58842;SDS011;44614;54.356;10.100;2023-03-25T04:34:59;13.73;;;2.77;;
58842;SDS011;44614;54.356;10.100;2023-03-25T04:37:24;6.43;;;2.38;;
58842;SDS011;44614;54.356;10.100;2023-03-25T04:39:53;5.97;;;2.60;;
58842;SDS011;44614;54.356;10.100;2023-03-25T04:42:20;7.15;;;2.40;;
58842;SDS011;44614;54.356;10.100;2023-03-25T04:44:50;4.20;;;2.13;;
58842;SDS011;44614;54.356;10.100;2023-03-25T04:47:19;4.95;;;2.17;;
58842;SDS011;44614;54.356;10.100;2023-03-25T04:49:47;6.68;;;1.55;;
58842;SDS011;44614;54.356;10.100;2023-03-25T04:52:13;4.13;;;1.50;;
58842;SDS011;44614;54.356;10.100;2023-03-25T04:54:38;5.05;;;1.27;;
58842;SDS011;44614;54.356;10.100;2023-03-25T04:57:04;1.70;;;0.82;;
58842;SDS011;44614;54.356;10.100;2023-03-25T04:59:29;1.98;;;0.95;;
58842;SDS011;44614;54.356;10.100;2023-03-25T05:01:55;2.60;;;0.68;;
58842;SDS011;44614;54.356;10.100;2023-03-25T05:04:20;2.65;;;0.68;;
58842;SDS011;44614;54.356;10.100;2023-03-25T05:06:48;2.92;;;0.73;;
58842;SDS011;44614;54.356;10.100;2023-03-25T05:09:18;2.17;;;0.75;;
58842;SDS011;44614;54.356;10.100;2023-03-25T05:11:46;1.45;;;0.75;;
58842;SDS011;44614;54.356;10.100;2023-03-25T05:14:12;2.30;;;0.90;;
58842;SDS011;44614;54.356;10.100;2023-03-25T05:16:39;2.42;;;0.85;;
58842;SDS011;44614;54.356;10.100;2023-03-25T05:19:05;5.57;;;1.13;;
58842;SDS011;44614;54.356;10.100;2023-03-25T05:21:34;3.13;;;1.10;;
58842;SDS011;44614;54.356;10.100;2023-03-25T05:24:02;1.80;;;0.98;;
58842;SDS011;44614;54.356;10.100;2023-03-25T05:26:32;2.28;;;1.02;;
58842;SDS011;44614;54.356;10.100;2023-03-25T05:29:02;2.25;;;1.30;;
58842;SDS011;44614;54.356;10.100;2023-03-25T05:31:29;2.72;;;1.23;;
58842;SDS011;44614;54.356;10.100;2023-03-25T05:33:54;4.25;;;1.05;;
58842;SDS011;44614;54.356;10.100;2023-03-25T05:36:20;3.30;;;1.67;;
58842;SDS011;44614;54.356;10.100;2023-03-25T05:38:49;5.07;;;1.63;;
58842;SDS011;44614;54.356;10.100;2023-03-25T05:41:15;6.17;;;1.60;;
58842;SDS011;44614;54.356;10.100;2023-03-25T05:43:44;3.55;;;1.67;;
58842;SDS011;44614;54.356;10.100;2023-03-25T05:46:15;5.47;;;1.65;;
58842;SDS011;44614;54.356;10.100;2023-03-25T05:48:42;4.95;;;1.58;;
58842;SDS011;44614;54.356;10.100;2023-03-25T05:51:09;5.38;;;1.90;;
58842;SDS011;44614;54.356;10.100;2023-03-25T05:53:39;7.57;;;2.05;;
58842;SDS011;44614;54.356;10.100;2023-03-25T05:56:04;3.17;;;2.17;;
58842;SDS011;44614;54.356;10.100;2023-03-25T05:58:30;13.10;;;2.70;;
58842;SDS011;44614;54.356;10.100;2023-03-25T06:00:56;10.23;;;2.55;;
58842;SDS011;44614;54.356;10.100;2023-03-25T06:03:23;8.82;;;3.67;;
58842;SDS011;44614;54.356;10.100;2023-03-25T06:05:50;5.72;;;2.00;;
58842;SDS011;44614;54.356;10.100;2023-03-25T06:10:43;9.35;;;2.55;;
58842;SDS011;44614;54.356;10.100;2023-03-25T06:13:09;6.00;;;2.80;;
58842;SDS011;44614;54.356;10.100;2023-03-25T06:15:35;6.20;;;2.58;;
58842;SDS011;44614;54.356;10.100;2023-03-25T06:18:04;10.07;;;3.58;;
58842;SDS011;44614;54.356;10.100;2023-03-25T06:20:29;4.13;;;1.80;;
58842;SDS011;44614;54.356;10.100;2023-03-25T06:22:55;3.25;;;2.00;;
58842;SDS011;44614;54.356;10.100;2023-03-25T06:25:20;6.38;;;2.40;;
58842;SDS011;44614;54.356;10.100;2023-03-25T06:27:50;6.65;;;2.70;;
58842;SDS011;44614;54.356;10.100;2023-03-25T06:30:17;8.60;;;2.22;;
58842;SDS011;44614;54.356;10.100;2023-03-25T06:32:44;7.78;;;1.60;;
58842;SDS011;44614;54.356;10.100;2023-03-25T06:35:14;4.45;;;2.50;;
58842;SDS011;44614;54.356;10.100;2023-03-25T06:37:44;2.95;;;1.55;;
58842;SDS011;44614;54.356;10.100;2023-03-25T06:40:11;3.95;;;1.67;;
58842;SDS011;44614;54.356;10.100;2023-03-25T06:42:37;1.90;;;1.42;;
58842;SDS011;44614;54.356;10.100;2023-03-25T06:45:02;5.18;;;1.75;;
58842;SDS011;44614;54.356;10.100;2023-03-25T06:47:29;2.47;;;1.17;;
58842;SDS011;44614;54.356;10.100;2023-03-25T06:49:54;2.40;;;1.17;;
58842;SDS011;44614;54.356;10.100;2023-03-25T06:52:20;6.60;;;2.17;;
58842;SDS011;44614;54.356;10.100;2023-03-25T06:54:45;6.90;;;1.35;;
58842;SDS011;44614;54.356;10.100;2023-03-25T06:57:10;5.50;;;1.50;;
58842;SDS011;44614;54.356;10.100;2023-03-25T06:59:36;4.43;;;1.67;;
58842;SDS011;44614;54.356;10.100;2023-03-25T07:02:01;3.28;;;1.27;;
58842;SDS011;44614;54.356;10.100;2023-03-25T07:04:26;2.67;;;0.93;;
58842;SDS011;44614;54.356;10.100;2023-03-25T07:06:52;3.08;;;1.10;;
58842;SDS011;44614;54.356;10.100;2023-03-25T07:09:17;7.07;;;1.20;;
58842;SDS011;44614;54.356;10.100;2023-03-25T07:11:43;3.90;;;0.90;;
58842;SDS011;44614;54.356;10.100;2023-03-25T07:14:08;1.77;;;1.08;;
58842;SDS011;44614;54.356;10.100;2023-03-25T07:16:34;2.72;;;0.98;;
58842;SDS011;44614;54.356;10.100;2023-03-25T07:18:59;4.10;;;1.10;;
58842;SDS011;44614;54.356;10.100;2023-03-25T07:21:24;4.65;;;1.27;;
58842;SDS011;44614;54.356;10.100;2023-03-25T07:23:50;7.45;;;1.58;;
58842;SDS011;44614;54.356;10.100;2023-03-25T07:26:16;4.03;;;1.50;;
58842;SDS011;44614;54.356;10.100;2023-03-25T07:28:42;6.65;;;1.33;;
58842;SDS011;44614;54.356;10.100;2023-03-25T07:31:08;6.63;;;1.40;;
58842;SDS011;44614;54.356;10.100;2023-03-25T07:33:34;7.45;;;1.63;;
58842;SDS011;44614;54.356;10.100;2023-03-25T07:36:00;3.08;;;1.08;;
58842;SDS011;44614;54.356;10.100;2023-03-25T07:38:26;7.47;;;2.80;;
58842;SDS011;44614;54.356;10.100;2023-03-25T07:40:51;3.92;;;1.52;;
58842;SDS011;44614;54.356;10.100;2023-03-25T07:43:16;4.40;;;1.20;;
58842;SDS011;44614;54.356;10.100;2023-03-25T07:45:42;9.17;;;1.40;;
58842;SDS011;44614;54.356;10.100;2023-03-25T07:48:07;5.50;;;1.65;;
58842;SDS011;44614;54.356;10.100;2023-03-25T07:50:38;2.80;;;1.23;;
58842;SDS011;44614;54.356;10.100;2023-03-25T07:53:03;1.55;;;0.90;;
58842;SDS011;44614;54.356;10.100;2023-03-25T07:55:29;4.38;;;1.40;;
58842;SDS011;44614;54.356;10.100;2023-03-25T07:57:54;4.50;;;1.50;;
58842;SDS011;44614;54.356;10.100;2023-03-25T08:00:22;1.83;;;1.00;;
58842;SDS011;44614;54.356;10.100;2023-03-25T08:02:47;11.43;;;1.60;;
58842;SDS011;44614;54.356;10.100;2023-03-25T08:05:12;2.55;;;1.20;;
58842;SDS011;44614;54.356;10.100;2023-03-25T08:07:45;1.80;;;0.90;;
58842;SDS011;44614;54.356;10.100;2023-03-25T08:10:14;2.75;;;1.17;;
58842;SDS011;44614;54.356;10.100;2023-03-25T08:12:40;4.10;;;1.65;;
58842;SDS011;44614;54.356;10.100;2023-03-25T08:15:06;4.75;;;1.73;;
58842;SDS011;44614;54.356;10.100;2023-03-25T08:17:31;5.20;;;1.20;;
58842;SDS011;44614;54.356;10.100;2023-03-25T08:19:57;5.18;;;1.33;;
58842;SDS011;44614;54.356;10.100;2023-03-25T08:22:24;2.95;;;1.23;;
58842;SDS011;44614;54.356;10.100;2023-03-25T08:24:50;4.65;;;1.58;;
58842;SDS011;44614;54.356;10.100;2023-03-25T08:27:15;1.80;;;0.98;;
58842;SDS011;44614;54.356;10.100;2023-03-25T08:29:41;6.55;;;1.50;;
58842;SDS011;44614;54.356;10.100;2023-03-25T08:32:06;13.93;;;2.10;;
58842;SDS011;44614;54.356;10.100;2023-03-25T08:34:31;10.60;;;2.13;;
58842;SDS011;44614;54.356;10.100;2023-03-25T08:37:03;5.05;;;1.77;;
58842;SDS011;44614;54.356;10.100;2023-03-25T08:39:32;6.80;;;1.63;;
58842;SDS011;44614;54.356;10.100;2023-03-25T08:42:03;6.30;;;2.03;;
58842;SDS011;44614;54.356;10.100;2023-03-25T08:44:29;5.07;;;1.73;;
58842;SDS011;44614;54.356;10.100;2023-03-25T08:46:54;5.20;;;1.38;;
58842;SDS011;44614;54.356;10.100;2023-03-25T08:49:20;6.20;;;1.63;;
58842;SDS011;44614;54.356;10.100;2023-03-25T08:51:45;6.93;;;1.88;;
58842;SDS011;44614;54.356;10.100;2023-03-25T08:54:10;13.10;;;2.13;;
58842;SDS011;44614;54.356;10.100;2023-03-25T08:56:35;7.63;;;1.60;;
58842;SDS011;44614;54.356;10.100;2023-03-25T08:59:01;3.50;;;1.13;;
58842;SDS011;44614;54.356;10.100;2023-03-25T09:01:26;7.57;;;1.98;;
58842;SDS011;44614;54.356;10.100;2023-03-25T09:03:51;5.63;;;1.80;;
58842;SDS011;44614;54.356;10.100;2023-03-25T09:06:17;5.60;;;1.57;;
58842;SDS011;44614;54.356;10.100;2023-03-25T09:08:43;6.68;;;1.92;;
58842;SDS011;44614;54.356;10.100;2023-03-25T09:11:08;9.07;;;1.87;;
58842;SDS011;44614;54.356;10.100;2023-03-25T09:13:33;1.60;;;1.30;;
58842;SDS011;44614;54.356;10.100;2023-03-25T09:15:59;3.28;;;1.65;;
58842;SDS011;44614;54.356;10.100;2023-03-25T09:18:24;8.05;;;1.25;;
58842;SDS011;44614;54.356;10.100;2023-03-25T09:20:50;2.55;;;1.50;;
58842;SDS011;44614;54.356;10.100;2023-03-25T09:23:16;4.72;;;1.50;;
58842;SDS011;44614;54.356;10.100;2023-03-25T09:25:42;2.57;;;1.07;;
58842;SDS011;44614;54.356;10.100;2023-03-25T09:28:08;2.95;;;1.67;;
58842;SDS011;44614;54.356;10.100;2023-03-25T09:30:33;6.65;;;1.17;;
58842;SDS011;44614;54.356;10.100;2023-03-25T09:32:59;6.05;;;2.03;;
58842;SDS011;44614;54.356;10.100;2023-03-25T09:35:25;3.70;;;1.63;;
58842;SDS011;44614;54.356;10.100;2023-03-25T09:37:50;5.93;;;1.25;;
58842;SDS011;44614;54.356;10.100;2023-03-25T09:40:15;5.82;;;1.65;;
58842;SDS011;44614;54.356;10.100;2023-03-25T09:45:46;6.93;;;1.70;;
58842;SDS011;44614;54.356;10.100;2023-03-25T09:50:46;4.63;;;1.85;;
58842;SDS011;44614;54.356;10.100;2023-03-25T09:53:34;8.37;;;1.63;;
58842;SDS011;44614;54.356;10.100;2023-03-25T09:56:05;14.75;;;2.38;;
58842;SDS011;44614;54.356;10.100;2023-03-25T09:58:37;7.05;;;1.52;;
58842;SDS011;44614;54.356;10.100;2023-03-25T10:01:28;6.22;;;0.80;;
58842;SDS011;44614;54.356;10.100;2023-03-25T10:06:35;4.93;;;1.05;;
58842;SDS011;44614;54.356;10.100;2023-03-25T10:14:57;6.97;;;1.08;;
58842;SDS011;44614;54.356;10.100;2023-03-25T10:17:36;4.13;;;0.70;;
58842;SDS011;44614;54.356;10.100;2023-03-25T10:20:16;2.58;;;0.70;;
58842;SDS011;44614;54.356;10.100;2023-03-25T10:25:56;2.05;;;0.70;;
58842;SDS011;44614;54.356;10.100;2023-03-25T10:28:27;3.20;;;1.02;;
58842;SDS011;44614;54.356;10.100;2023-03-25T10:30:58;2.17;;;0.80;;
58842;SDS011;44614;54.356;10.100;2023-03-25T10:33:27;0.82;;;0.52;;
58842;SDS011;44614;54.356;10.100;2023-03-25T10:36:02;2.13;;;0.63;;
58842;SDS011;44614;54.356;10.100;2023-03-25T10:38:30;1.58;;;0.75;;
58842;SDS011;44614;54.356;10.100;2023-03-25T10:41:17;2.25;;;1.30;;
58842;SDS011;44614;54.356;10.100;2023-03-25T10:43:48;2.08;;;0.65;;
58842;SDS011;44614;54.356;10.100;2023-03-25T10:46:23;3.85;;;1.27;;
58842;SDS011;44614;54.356;10.100;2023-03-25T10:49:01;2.92;;;0.95;;
58842;SDS011;44614;54.356;10.100;2023-03-25T10:51:27;2.50;;;1.13;;
58842;SDS011;44614;54.356;10.100;2023-03-25T10:53:56;8.43;;;1.13;;
58842;SDS011;44614;54.356;10.100;2023-03-25T10:56:41;3.17;;;0.95;;
58842;SDS011;44614;54.356;10.100;2023-03-25T11:02:00;3.42;;;1.23;;
58842;SDS011;44614;54.356;10.100;2023-03-25T11:04:36;6.03;;;2.08;;
58842;SDS011;44614;54.356;10.100;2023-03-25T11:07:12;7.18;;;1.25;;
58842;SDS011;44614;54.356;10.100;2023-03-25T11:12:38;8.57;;;0.75;;
58842;SDS011;44614;54.356;10.100;2023-03-25T11:15:22;6.82;;;1.15;;
58842;SDS011;44614;54.356;10.100;2023-03-25T11:18:33;4.63;;;0.77;;
58842;SDS011;44614;54.356;10.100;2023-03-25T11:20:45;3.28;;;0.77;;
58842;SDS011;44614;54.356;10.100;2023-03-25T11:23:20;3.38;;;1.00;;
58842;SDS011;44614;54.356;10.100;2023-03-25T11:25:52;5.47;;;1.50;;
58842;SDS011;44614;54.356;10.100;2023-03-25T11:28:20;4.80;;;0.73;;
58842;SDS011;44614;54.356;10.100;2023-03-25T11:33:39;7.15;;;1.25;;
58842;SDS011;44614;54.356;10.100;2023-03-25T11:36:50;8.90;;;1.58;;
58842;SDS011;44614;54.356;10.100;2023-03-25T11:39:02;5.18;;;1.02;;
58842;SDS011;44614;54.356;10.100;2023-03-25T11:41:35;6.95;;;1.30;;
58842;SDS011;44614;54.356;10.100;2023-03-25T11:44:02;3.58;;;1.33;;
58842;SDS011;44614;54.356;10.100;2023-03-25T11:46:29;10.15;;;0.98;;
58842;SDS011;44614;54.356;10.100;2023-03-25T11:49:06;3.55;;;1.25;;
58842;SDS011;44614;54.356;10.100;2023-03-25T11:51:36;7.05;;;1.40;;
58842;SDS011;44614;54.356;10.100;2023-03-25T11:54:04;1.70;;;0.98;;
58842;SDS011;44614;54.356;10.100;2023-03-25T11:56:33;4.40;;;0.90;;
58842;SDS011;44614;54.356;10.100;2023-03-25T11:59:01;8.32;;;2.35;;
58842;SDS011;44614;54.356;10.100;2023-03-25T12:06:53;3.25;;;1.38;;
58842;SDS011;44614;54.356;10.100;2023-03-25T12:09:27;4.75;;;1.10;;
58842;SDS011;44614;54.356;10.100;2023-03-25T12:33:49;4.50;;;0.88;;
58842;SDS011;44614;54.356;10.100;2023-03-25T12:47:41;2.67;;;0.68;;
58842;SDS011;44614;54.356;10.100;2023-03-25T12:50:15;2.53;;;0.65;;
58842;SDS011;44614;54.356;10.100;2023-03-25T12:56:01;1.02;;;0.57;;
58842;SDS011;44614;54.356;10.100;2023-03-25T13:04:36;2.63;;;0.13;;
58842;SDS011;44614;54.356;10.100;2023-03-25T13:07:17;0.88;;;0.50;;
58842;SDS011;44614;54.356;10.100;2023-03-25T13:09:53;1.05;;;0.45;;
58842;SDS011;44614;54.356;10.100;2023-03-25T13:17:43;2.97;;;0.32;;
58842;SDS011;44614;54.356;10.100;2023-03-25T13:20:13;5.05;;;0.57;;
58842;SDS011;44614;54.356;10.100;2023-03-25T13:22:42;0.88;;;0.22;;
58842;SDS011;44614;54.356;10.100;2023-03-25T13:25:16;0.20;;;0.20;;
58842;SDS011;44614;54.356;10.100;2023-03-25T13:27:45;3.72;;;0.55;;
58842;SDS011;44614;54.356;10.100;2023-03-25T13:30:21;1.77;;;0.30;;
58842;SDS011;44614;54.356;10.100;2023-03-25T13:32:56;2.78;;;0.30;;
58842;SDS011;44614;54.356;10.100;2023-03-25T13:35:32;1.65;;;0.68;;
58842;SDS011;44614;54.356;10.100;2023-03-25T13:38:00;0.43;;;0.43;;
58842;SDS011;44614;54.356;10.100;2023-03-25T13:48:34;1.27;;;0.60;;
58842;SDS011;44614;54.356;10.100;2023-03-25T13:51:01;6.03;;;1.13;;
58842;SDS011;44614;54.356;10.100;2023-03-25T13:56:08;10.02;;;1.25;;
58842;SDS011;44614;54.356;10.100;2023-03-25T14:01:30;9.70;;;1.30;;
58842;SDS011;44614;54.356;10.100;2023-03-25T14:12:12;8.30;;;1.17;;
58842;SDS011;44614;54.356;10.100;2023-03-25T14:14:46;1.65;;;1.00;;
58842;SDS011;44614;54.356;10.100;2023-03-25T14:17:25;5.15;;;2.20;;
58842;SDS011;44614;54.356;10.100;2023-03-25T14:19:52;5.43;;;1.17;;
58842;SDS011;44614;54.356;10.100;2023-03-25T14:22:26;8.18;;;1.13;;
58842;SDS011;44614;54.356;10.100;2023-03-25T14:24:56;3.83;;;1.20;;
58842;SDS011;44614;54.356;10.100;2023-03-25T14:29:56;5.60;;;1.00;;
58842;SDS011;44614;54.356;10.100;2023-03-25T14:32:28;5.40;;;1.23;;
58842;SDS011;44614;54.356;10.100;2023-03-25T14:43:24;7.57;;;1.50;;
58842;SDS011;44614;54.356;10.100;2023-03-25T14:45:52;3.53;;;0.88;;
58842;SDS011;44614;54.356;10.100;2023-03-25T14:48:32;5.65;;;1.23;;
58842;SDS011;44614;54.356;10.100;2023-03-25T14:56:05;6.25;;;1.30;;
58842;SDS011;44614;54.356;10.100;2023-03-25T14:58:34;5.28;;;1.10;;
58842;SDS011;44614;54.356;10.100;2023-03-25T15:01:03;4.10;;;2.03;;
58842;SDS011;44614;54.356;10.100;2023-03-25T15:03:34;8.25;;;1.23;;
58842;SDS011;44614;54.356;10.100;2023-03-25T15:06:04;5.75;;;1.45;;
58842;SDS011;44614;54.356;10.100;2023-03-25T15:08:34;7.88;;;1.70;;
58842;SDS011;44614;54.356;10.100;2023-03-25T15:11:13;2.65;;;0.88;;
58842;SDS011;44614;54.356;10.100;2023-03-25T15:13:46;4.05;;;0.93;;
58842;SDS011;44614;54.356;10.100;2023-03-25T15:19:09;6.20;;;1.42;;
58842;SDS011;44614;54.356;10.100;2023-03-25T15:22:21;8.13;;;1.63;;
58842;SDS011;44614;54.356;10.100;2023-03-25T15:24:29;8.95;;;2.05;;
58842;SDS011;44614;54.356;10.100;2023-03-25T15:26:57;4.38;;;1.63;;
58842;SDS011;44614;54.356;10.100;2023-03-25T15:35:30;2.75;;;1.38;;
58842;SDS011;44614;54.356;10.100;2023-03-25T15:38:02;3.35;;;1.10;;
58842;SDS011;44614;54.356;10.100;2023-03-25T15:40:45;5.93;;;1.73;;
58842;SDS011;44614;54.356;10.100;2023-03-25T15:55:04;8.75;;;1.20;;
58842;SDS011;44614;54.356;10.100;2023-03-25T15:57:50;6.07;;;1.70;;
58842;SDS011;44614;54.356;10.100;2023-03-25T16:00:33;5.82;;;0.93;;
58842;SDS011;44614;54.356;10.100;2023-03-25T16:05:37;4.85;;;1.25;;
58842;SDS011;44614;54.356;10.100;2023-03-25T16:08:16;5.47;;;0.93;;
58842;SDS011;44614;54.356;10.100;2023-03-25T16:10:46;3.60;;;1.13;;
58842;SDS011;44614;54.356;10.100;2023-03-25T16:13:13;7.07;;;1.77;;
58842;SDS011;44614;54.356;10.100;2023-03-25T16:15:47;6.68;;;1.55;;
58842;SDS011;44614;54.356;10.100;2023-03-25T16:18:16;3.38;;;1.40;;
58842;SDS011;44614;54.356;10.100;2023-03-25T16:20:42;7.97;;;1.98;;
58842;SDS011;44614;54.356;10.100;2023-03-25T16:23:20;2.75;;;0.88;;
58842;SDS011;44614;54.356;10.100;2023-03-25T16:25:47;3.47;;;1.48;;
58842;SDS011;44614;54.356;10.100;2023-03-25T16:28:17;8.45;;;1.23;;
58842;SDS011;44614;54.356;10.100;2023-03-25T16:30:49;3.70;;;0.88;;
58842;SDS011;44614;54.356;10.100;2023-03-25T16:33:19;3.30;;;0.63;;
58842;SDS011;44614;54.356;10.100;2023-03-25T16:35:53;3.08;;;1.33;;
58842;SDS011;44614;54.356;10.100;2023-03-25T16:38:24;6.05;;;1.08;;
58842;SDS011;44614;54.356;10.100;2023-03-25T16:40:50;2.50;;;1.17;;
58842;SDS011;44614;54.356;10.100;2023-03-25T16:43:22;2.15;;;0.82;;
58842;SDS011;44614;54.356;10.100;2023-03-25T16:45:50;3.95;;;0.93;;
58842;SDS011;44614;54.356;10.100;2023-03-25T16:48:18;5.20;;;1.40;;
58842;SDS011;44614;54.356;10.100;2023-03-25T16:50:51;1.67;;;0.93;;
58842;SDS011;44614;54.356;10.100;2023-03-25T16:53:17;4.43;;;1.08;;
58842;SDS011;44614;54.356;10.100;2023-03-25T16:55:47;2.97;;;0.80;;
58842;SDS011;44614;54.356;10.100;2023-03-25T16:58:19;1.85;;;0.75;;
58842;SDS011;44614;54.356;10.100;2023-03-25T17:00:47;1.48;;;0.80;;
58842;SDS011;44614;54.356;10.100;2023-03-25T17:03:17;3.80;;;2.78;;
58842;SDS011;44614;54.356;10.100;2023-03-25T17:06:03;1.27;;;0.70;;
58842;SDS011;44614;54.356;10.100;2023-03-25T17:08:37;3.60;;;1.10;;
58842;SDS011;44614;54.356;10.100;2023-03-25T17:11:03;2.90;;;0.65;;
58842;SDS011;44614;54.356;10.100;2023-03-25T17:13:45;0.75;;;0.70;;
58842;SDS011;44614;54.356;10.100;2023-03-25T17:16:15;9.95;;;1.52;;
58842;SDS011;44614;54.356;10.100;2023-03-25T17:18:42;1.23;;;0.73;;
58842;SDS011;44614;54.356;10.100;2023-03-25T17:21:09;2.67;;;1.27;;
58842;SDS011;44614;54.356;10.100;2023-03-25T17:23:42;4.35;;;1.15;;
58842;SDS011;44614;54.356;10.100;2023-03-25T17:26:13;1.98;;;0.95;;
58842;SDS011;44614;54.356;10.100;2023-03-25T17:31:57;1.95;;;0.60;;
58842;SDS011;44614;54.356;10.100;2023-03-25T17:34:09;7.35;;;1.05;;
58842;SDS011;44614;54.356;10.100;2023-03-25T17:36:39;1.00;;;0.80;;
58842;SDS011;44614;54.356;10.100;2023-03-25T17:39:23;0.82;;;0.60;;
58842;SDS011;44614;54.356;10.100;2023-03-25T17:42:00;26.15;;;11.38;;
58842;SDS011;44614;54.356;10.100;2023-03-25T17:44:37;14.32;;;5.93;;
58842;SDS011;44614;54.356;10.100;2023-03-25T17:47:05;16.70;;;5.90;;
58842;SDS011;44614;54.356;10.100;2023-03-25T17:49:32;19.13;;;5.15;;
58842;SDS011;44614;54.356;10.100;2023-03-25T17:51:58;10.40;;;3.63;;